KCAE/CAE METAR and TAF weather

Enter ICAO airport designator
Station Type Date Time Source
KCAE METAR 2018/12/12 15:56 UTC NOAA

KCAE 121556Z 00000KT 10SM SCT130 BKN250 06/01 A3025 RMK AO2 SLP246 T00610006


Station Type Date Time Source
KCAE Decoded METAR 2018/12/12 15:56 UTC NOAA

COLUMBIA METROPOLITAN AIRPORT , SC, United States (KCAE) 33-57N 081-07W 73M
Dec 12, 2018 - 10:56 AM EST / 2018.12.12 1556 UTC
Wind: Calm:0
Visibility: 10 mile(s):0
Sky conditions: mostly cloudy
Temperature: 43.0 F (6.1 C)
Dew Point: 33.1 F (0.6 C)
Relative Humidity: 67%
Pressure (altimeter): 30.25 in. Hg (1024 hPa)
ob: KCAE 121556Z 00000KT 10SM SCT130 BKN250 06/01 A3025 RMK AO2 SLP246 T00610006
cycle: 16

Station Type Date Time Source
KCAE TAF 2018/12/12 15:48 UTC NOAA

TAF
AMD KCAE 121445Z 1215/1312 25006KT P6SM BKN250
FM130000 00000KT P6SM BKN250


Example: see airport list